Aviation Digital Data Service (ADDS)

Output produced by METARs form (1254 UTC 30 May 2017)
found at http://aviationweather.gov/adds/metars/
 
KDUJ 301129Z 3012/3112 25004KT 6SM TS BKN040CB 
     FM301300 25004KT P6SM BKN040 
     FM301600 23010G17KT P6SM BKN070 
     FM302300 23005KT P6SM SCT250